Time;durP1;ratioP1;P1;durP2;ratioP2;P2;SDS_P1;SDS_P2;PMS_P1;PMS_P2;Temp;Humidity;BMP_temperature;BMP_pressure;BME280_temperature;BME280_humidity;BME280_pressure;Samples;Min_cycle;Max_cycle;Signal;HPM_P1;HPM_P2
2021/05/13 00:01:46;;;;;;;18.08;4.95;;;11.00;99.90;;;;;;5059687;28;20387;-66
2021/05/13 00:04:11;;;;;;;20.25;5.50;;;11.00;99.90;;;;;;5056270;28;20113;-66
2021/05/13 00:06:37;;;;;;;15.70;4.25;;;11.00;99.90;;;;;;5060073;28;20494;-66
2021/05/13 00:09:06;;;;;;;22.95;5.25;;;11.10;99.90;;;;;;5053543;28;20550;-66
2021/05/13 00:11:34;;;;;;;19.65;5.07;;;11.10;99.90;;;;;;5057923;28;20040;-66
2021/05/13 00:14:02;;;;;;;22.30;5.93;;;11.00;99.90;;;;;;5059645;28;20044;-66
2021/05/13 00:16:33;;;;;;;20.85;5.28;;;11.00;99.90;;;;;;5057782;28;20486;-66
2021/05/13 00:19:01;;;;;;;13.70;4.03;;;10.90;99.90;;;;;;5061403;28;20127;-66
2021/05/13 00:21:27;;;;;;;19.48;4.55;;;10.90;99.90;;;;;;5064281;28;20159;-66
2021/05/13 00:23:53;;;;;;;19.73;4.32;;;10.90;99.90;;;;;;5064693;28;20105;-66
2021/05/13 00:26:34;;;;;;;21.05;5.13;;;10.90;99.90;;;;;;5066268;28;20041;-66
2021/05/13 00:29:01;;;;;;;19.92;5.35;;;10.90;99.90;;;;;;5063503;28;20032;-66
2021/05/13 00:31:27;;;;;;;19.38;4.72;;;10.90;99.90;;;;;;5066311;28;20037;-66
2021/05/13 00:33:52;;;;;;;18.25;5.15;;;10.90;99.90;;;;;;5064408;28;20561;-66
2021/05/13 00:36:18;;;;;;;23.27;6.30;;;10.80;99.90;;;;;;5064552;28;20048;-66
2021/05/13 00:38:44;;;;;;;22.25;6.63;;;10.80;99.90;;;;;;5063808;28;20032;-65
2021/05/13 00:41:09;;;;;;;17.75;4.88;;;10.80;99.90;;;;;;5063329;28;20044;-66
2021/05/13 00:43:35;;;;;;;15.63;5.13;;;10.70;99.90;;;;;;5064784;28;20107;-66
2021/05/13 00:46:01;;;;;;;19.48;5.70;;;10.70;99.90;;;;;;5058967;28;20103;-66
2021/05/13 00:48:33;;;;;;;21.10;5.28;;;10.80;99.90;;;;;;5061525;28;20032;-66
2021/05/13 00:50:58;;;;;;;19.35;4.93;;;10.80;99.90;;;;;;5059930;28;20043;-66
2021/05/13 00:53:25;;;;;;;19.63;4.95;;;10.80;99.90;;;;;;5057854;28;20037;-66
2021/05/13 00:55:51;;;;;;;18.92;5.63;;;10.80;99.90;;;;;;5061152;28;20045;-66
2021/05/13 00:58:17;;;;;;;18.98;4.82;;;10.80;99.90;;;;;;5057482;28;20488;-66
2021/05/13 01:03:24;;;;;;;21.02;4.75;;;10.80;99.90;;;;;;5058379;28;20044;-66
2021/05/13 01:05:49;;;;;;;26.55;5.13;;;10.80;99.90;;;;;;5058679;28;20044;-66
2021/05/13 01:08:15;;;;;;;19.75;5.43;;;10.80;99.90;;;;;;5057664;28;20064;-66
2021/05/13 01:10:42;;;;;;;14.55;4.53;;;10.70;99.90;;;;;;5060375;28;20098;-66
2021/05/13 01:13:14;;;;;;;15.50;5.05;;;10.70;99.90;;;;;;5061509;28;20033;-66
2021/05/13 01:15:42;;;;;;;18.90;5.05;;;10.70;99.90;;;;;;5062035;28;20630;-66
2021/05/13 01:20:36;;;;;;;21.85;6.00;;;10.60;99.90;;;;;;5061979;28;20040;-66
2021/05/13 01:23:03;;;;;;;23.35;5.68;;;10.70;99.90;;;;;;5060400;28;20055;-66
2021/05/13 01:25:29;;;;;;;16.20;4.32;;;10.60;99.90;;;;;;5062521;28;20040;-66
2021/05/13 01:28:01;;;;;;;15.15;5.32;;;10.50;99.90;;;;;;5061484;28;20067;-66
2021/05/13 01:30:29;;;;;;;18.60;6.10;;;10.50;99.90;;;;;;5063860;28;20028;-65
2021/05/13 01:32:57;;;;;;;23.25;6.55;;;10.50;99.90;;;;;;5059052;28;20372;-66
2021/05/13 01:35:23;;;;;;;19.63;5.35;;;10.50;99.90;;;;;;5060923;28;20135;-66
2021/05/13 01:38:10;;;;;;;18.38;4.97;;;10.40;99.90;;;;;;5060626;28;20115;-66
2021/05/13 01:40:37;;;;;;;18.27;5.68;;;10.40;99.90;;;;;;5059383;28;20068;-66
2021/05/13 01:43:04;;;;;;;17.92;4.80;;;10.40;99.90;;;;;;5063472;28;20696;-66
2021/05/13 01:45:30;;;;;;;27.65;6.97;;;10.50;99.90;;;;;;5061808;28;20479;-66
2021/05/13 01:48:02;;;;;;;22.00;5.32;;;10.50;99.90;;;;;;5064342;28;20552;-66
2021/05/13 01:50:32;;;;;;;21.88;5.38;;;10.50;99.90;;;;;;5065548;28;20368;-66
2021/05/13 01:52:58;;;;;;;19.52;6.47;;;10.50;99.90;;;;;;5061665;28;20040;-66
2021/05/13 01:55:25;;;;;;;22.27;5.40;;;10.50;99.90;;;;;;5060877;28;20119;-66
2021/05/13 01:57:52;;;;;;;19.02;5.53;;;10.60;99.90;;;;;;5061021;28;20132;-66
2021/05/13 02:00:18;;;;;;;18.35;6.40;;;10.60;99.90;;;;;;5060580;28;20037;-66
2021/05/13 02:02:45;;;;;;;16.08;5.50;;;10.60;99.90;;;;;;5063702;28;20071;-66
2021/05/13 02:05:12;;;;;;;18.98;6.38;;;10.50;99.90;;;;;;5065514;28;20040;-66
2021/05/13 02:07:38;;;;;;;20.02;6.10;;;10.50;99.90;;;;;;5061532;28;20045;-66
2021/05/13 02:10:05;;;;;;;20.45;5.93;;;10.60;99.90;;;;;;5062448;28;20049;-66
2021/05/13 02:12:31;;;;;;;22.27;6.90;;;10.50;99.90;;;;;;5059040;28;20040;-66
2021/05/13 02:14:57;;;;;;;15.43;5.63;;;10.50;99.90;;;;;;5063935;28;20033;-65
2021/05/13 02:17:28;;;;;;;22.77;7.07;;;10.40;99.90;;;;;;5058552;28;20039;-65
2021/05/13 02:19:54;;;;;;;18.92;6.10;;;10.50;99.90;;;;;;5061904;28;20159;-65
2021/05/13 02:22:19;;;;;;;18.05;6.00;;;10.40;99.90;;;;;;5063469;28;21741;-66
2021/05/13 02:24:45;;;;;;;23.20;6.90;;;10.40;99.90;;;;;;5066701;28;20040;-66
2021/05/13 02:27:11;;;;;;;21.33;5.68;;;10.40;99.90;;;;;;5065647;28;20111;-65
2021/05/13 02:29:36;;;;;;;22.88;7.40;;;10.40;99.90;;;;;;5067529;28;20086;-66
2021/05/13 02:32:02;;;;;;;16.85;6.32;;;10.30;99.90;;;;;;5062937;28;20059;-66
2021/05/13 02:34:28;;;;;;;16.65;6.05;;;10.30;99.90;;;;;;5069889;28;20488;-66
2021/05/13 02:36:53;;;;;;;17.20;5.68;;;10.30;99.90;;;;;;5071269;28;20045;-66
2021/05/13 02:39:22;;;;;;;16.20;5.55;;;10.40;99.90;;;;;;5070400;28;20064;-66
2021/05/13 02:41:48;;;;;;;17.80;5.95;;;10.40;99.90;;;;;;5071583;28;20507;-66
2021/05/13 02:44:13;;;;;;;17.92;6.05;;;10.40;99.90;;;;;;5068401;28;20047;-66
2021/05/13 02:46:39;;;;;;;12.20;6.47;;;10.40;99.90;;;;;;5069005;28;20040;-65
2021/05/13 02:49:04;;;;;;;15.95;5.30;;;10.40;99.90;;;;;;5070112;28;20156;-66
2021/05/13 02:51:31;;;;;;;20.50;5.55;;;10.40;99.90;;;;;;5070640;28;20094;-66
2021/05/13 02:53:59;;;;;;;24.83;5.78;;;10.50;99.90;;;;;;5070569;28;20040;-66
2021/05/13 02:56:25;;;;;;;17.85;5.68;;;10.40;99.90;;;;;;5070806;28;20044;-66
2021/05/13 02:58:51;;;;;;;14.68;5.10;;;10.40;99.90;;;;;;5071067;28;20032;-65
2021/05/13 03:01:29;;;;;;;15.25;5.25;;;10.40;99.90;;;;;;5071507;28;20036;-66
2021/05/13 03:03:55;;;;;;;19.27;5.28;;;10.40;99.90;;;;;;5069742;28;20040;-66
2021/05/13 03:06:22;;;;;;;17.73;5.03;;;10.40;99.90;;;;;;5070229;28;20490;-66
2021/05/13 03:08:55;;;;;;;16.08;5.97;;;10.40;99.90;;;;;;5070534;28;20040;-65
2021/05/13 03:11:23;;;;;;;15.55;5.05;;;10.40;99.90;;;;;;5070702;28;20043;-65
2021/05/13 03:13:54;;;;;;;18.50;6.47;;;10.40;99.90;;;;;;5069436;28;20098;-65
2021/05/13 03:16:20;;;;;;;18.77;5.70;;;10.40;99.90;;;;;;5068900;28;20450;-66
2021/05/13 03:18:50;;;;;;;19.10;5.97;;;10.40;99.90;;;;;;5070856;28;20124;-66
2021/05/13 03:21:26;;;;;;;14.23;4.88;;;10.40;99.90;;;;;;5071650;28;20510;-65
2021/05/13 03:24:00;;;;;;;18.73;6.82;;;10.40;99.90;;;;;;5069715;28;20047;-66
2021/05/13 03:29:16;;;;;;;13.90;6.20;;;10.40;99.90;;;;;;5044165;28;20086;-66
2021/05/13 03:31:42;;;;;;;15.50;5.78;;;10.40;99.90;;;;;;5059822;28;20043;-65
2021/05/13 03:34:07;;;;;;;15.07;6.00;;;10.30;99.90;;;;;;5058475;28;20037;-65
2021/05/13 03:36:34;;;;;;;19.67;6.35;;;10.20;99.90;;;;;;5058333;28;20068;-66
2021/05/13 03:39:04;;;;;;;17.55;6.80;;;10.20;99.90;;;;;;5058672;28;20045;-65
2021/05/13 03:41:30;;;;;;;16.83;5.75;;;10.20;99.90;;;;;;5054795;28;20142;-65
2021/05/13 03:43:55;;;;;;;19.48;6.78;;;10.20;99.90;;;;;;5060119;28;20530;-65
2021/05/13 03:46:21;;;;;;;15.75;6.22;;;10.20;99.90;;;;;;5060922;28;20036;-66
2021/05/13 03:48:47;;;;;;;20.33;7.25;;;10.20;99.90;;;;;;5060153;28;20517;-66
2021/05/13 03:51:13;;;;;;;18.08;6.70;;;10.20;99.90;;;;;;5059715;28;20037;-66
2021/05/13 03:53:39;;;;;;;21.25;6.05;;;10.20;99.90;;;;;;5062563;28;20037;-66
2021/05/13 03:56:05;;;;;;;14.65;6.13;;;10.20;99.90;;;;;;5061117;28;20048;-66
2021/05/13 03:58:35;;;;;;;21.02;6.60;;;10.10;99.90;;;;;;5059849;28;20040;-65
2021/05/13 04:01:14;;;;;;;17.13;6.65;;;10.10;99.90;;;;;;5060931;28;20032;-65
2021/05/13 04:03:39;;;;;;;18.33;5.78;;;10.00;99.90;;;;;;5062873;28;20044;-65
2021/05/13 04:06:05;;;;;;;16.15;7.32;;;10.00;99.90;;;;;;5058223;28;20045;-65
2021/05/13 04:08:31;;;;;;;15.40;5.97;;;10.00;99.90;;;;;;5058932;28;20037;-65
2021/05/13 04:10:56;;;;;;;22.25;6.28;;;10.00;99.90;;;;;;5057889;28;20060;-66
2021/05/13 04:13:23;;;;;;;18.88;6.95;;;10.00;99.90;;;;;;5060995;28;20040;-65
2021/05/13 04:15:49;;;;;;;20.23;7.40;;;10.00;99.90;;;;;;5057474;28;20052;-66
2021/05/13 04:18:15;;;;;;;14.23;5.43;;;10.00;99.90;;;;;;5059642;28;20037;-66
2021/05/13 04:20:41;;;;;;;14.80;6.28;;;9.90;99.90;;;;;;5058465;28;20036;-66
2021/05/13 04:23:09;;;;;;;17.77;7.32;;;10.00;99.90;;;;;;5055745;28;20459;-66
2021/05/13 04:25:36;;;;;;;16.42;7.43;;;9.90;99.90;;;;;;5059195;28;20043;-65
2021/05/13 04:28:02;;;;;;;13.18;6.25;;;9.90;99.90;;;;;;5059845;28;20075;-65
2021/05/13 04:30:29;;;;;;;18.83;6.68;;;9.90;99.90;;;;;;5058900;28;20039;-65
2021/05/13 04:32:55;;;;;;;16.38;6.43;;;9.90;99.90;;;;;;5058844;28;20380;-66
2021/05/13 04:35:21;;;;;;;17.85;5.90;;;10.00;99.90;;;;;;5061997;28;20055;-65
2021/05/13 04:37:47;;;;;;;17.50;5.70;;;10.10;99.90;;;;;;5057986;28;20499;-66
2021/05/13 04:40:13;;;;;;;16.40;6.57;;;10.20;99.90;;;;;;5056922;28;20475;-66
2021/05/13 04:42:39;;;;;;;17.80;6.55;;;10.40;99.90;;;;;;5057390;28;20433;-66
2021/05/13 04:45:06;;;;;;;14.30;5.65;;;10.60;99.90;;;;;;5055060;28;20541;-66
2021/05/13 04:47:46;;;;;;;16.85;7.03;;;10.80;99.90;;;;;;5060065;28;20036;-66
2021/05/13 04:50:12;;;;;;;14.45;5.85;;;10.90;99.90;;;;;;5059768;28;20033;-66
2021/05/13 04:52:43;;;;;;;17.95;5.78;;;11.20;99.90;;;;;;5061120;28;20139;-66
2021/05/13 04:55:09;;;;;;;19.95;6.65;;;11.50;99.90;;;;;;5055525;28;20115;-66
2021/05/13 04:57:36;;;;;;;17.52;6.28;;;11.70;99.90;;;;;;5060674;28;20036;-66
2021/05/13 05:00:07;;;;;;;13.38;6.07;;;11.80;99.80;;;;;;5059422;28;20064;-66
2021/05/13 05:02:33;;;;;;;18.15;6.18;;;11.70;99.60;;;;;;5058946;28;20033;-66
2021/05/13 05:04:58;;;;;;;15.23;6.15;;;11.70;99.60;;;;;;5059681;28;20040;-66
2021/05/13 05:07:24;;;;;;;19.15;6.65;;;11.60;99.60;;;;;;5060997;28;20032;-66
2021/05/13 05:09:49;;;;;;;13.40;6.07;;;11.50;99.80;;;;;;5057831;28;21553;-66
2021/05/13 05:12:15;;;;;;;15.07;6.63;;;11.40;99.90;;;;;;5059311;28;20120;-66
2021/05/13 05:14:41;;;;;;;14.43;6.22;;;11.40;99.90;;;;;;5062326;28;20557;-66
2021/05/13 05:17:08;;;;;;;12.45;6.45;;;11.30;99.90;;;;;;5062699;28;20040;-66
2021/05/13 05:19:38;;;;;;;11.73;6.10;;;11.40;99.90;;;;;;5058249;28;20036;-66
2021/05/13 05:22:06;;;;;;;15.77;5.63;;;11.80;99.90;;;;;;5058247;28;20087;-66
2021/05/13 05:24:33;;;;;;;12.07;4.57;;;12.50;99.90;;;;;;5057094;28;20041;-66
2021/05/13 05:26:58;;;;;;;10.05;4.40;;;13.40;99.10;;;;;;5060057;28;20033;-66
2021/05/13 05:29:25;;;;;;;12.40;4.28;;;14.40;97.10;;;;;;5059011;28;20033;-66
2021/05/13 05:31:50;;;;;;;9.88;3.60;;;15.10;95.70;;;;;;5059735;28;20060;-66
2021/05/13 05:34:16;;;;;;;10.00;3.92;;;15.60;94.70;;;;;;5056624;28;20118;-66
2021/05/13 05:36:42;;;;;;;8.30;4.18;;;15.70;94.10;;;;;;5057663;28;20072;-66
2021/05/13 05:39:08;;;;;;;11.98;3.60;;;15.50;93.70;;;;;;5059838;28;20134;-66
2021/05/13 05:41:34;;;;;;;9.75;3.47;;;15.40;93.40;;;;;;5057458;28;20036;-66
2021/05/13 05:44:00;;;;;;;12.10;3.70;;;15.30;93.60;;;;;;5057707;28;20583;-66
2021/05/13 05:46:27;;;;;;;10.40;3.65;;;15.10;93.90;;;;;;5058522;28;20036;-66
2021/05/13 05:49:00;;;;;;;13.85;3.83;;;14.90;93.60;;;;;;5055478;28;20120;-66
2021/05/13 05:51:27;;;;;;;10.60;3.10;;;14.70;94.10;;;;;;5054564;28;20143;-66
2021/05/13 05:54:05;;;;;;;12.43;3.28;;;14.40;94.40;;;;;;5054108;28;20044;-66
2021/05/13 05:56:31;;;;;;;10.13;3.40;;;14.30;94.70;;;;;;5058291;28;20085;-66
2021/05/13 05:58:58;;;;;;;14.18;3.45;;;14.10;94.70;;;;;;5059431;28;20048;-66
2021/05/13 06:01:24;;;;;;;15.27;3.90;;;14.00;94.70;;;;;;5062352;28;20037;-66
2021/05/13 06:03:50;;;;;;;11.20;2.90;;;14.00;95.10;;;;;;5061000;28;20035;-66
2021/05/13 06:06:16;;;;;;;7.00;2.85;;;14.00;94.80;;;;;;5059125;28;20036;-66
2021/05/13 06:08:42;;;;;;;12.60;3.35;;;14.20;94.90;;;;;;5060398;28;20045;-66
2021/05/13 06:11:09;;;;;;;12.95;3.28;;;14.30;94.20;;;;;;5060650;28;20451;-66
2021/05/13 06:13:37;;;;;;;6.90;2.60;;;14.50;94.50;;;;;;5061753;28;20040;-65
2021/05/13 06:16:03;;;;;;;7.82;2.55;;;14.70;94.80;;;;;;5064033;28;20047;-65
2021/05/13 06:18:31;;;;;;;15.20;3.10;;;15.00;94.70;;;;;;5062090;28;20060;-66
2021/05/13 06:20:59;;;;;;;8.05;2.10;;;15.10;92.80;;;;;;5061636;28;20040;-66
2021/05/13 06:23:29;;;;;;;10.10;2.70;;;15.30;92.70;;;;;;5060116;28;20037;-66
2021/05/13 06:25:55;;;;;;;10.10;2.22;;;15.40;92.20;;;;;;5059155;28;20040;-66
2021/05/13 06:28:20;;;;;;;10.65;2.78;;;15.40;92.00;;;;;;5064121;28;20400;-66
2021/05/13 06:30:46;;;;;;;11.35;3.33;;;15.30;90.80;;;;;;5064467;28;20072;-66
2021/05/13 06:33:12;;;;;;;8.85;1.92;;;15.10;91.40;;;;;;5066506;28;20083;-66
2021/05/13 06:35:42;;;;;;;9.95;2.20;;;15.20;92.10;;;;;;5063260;28;20036;-66
2021/05/13 06:38:07;;;;;;;10.43;2.10;;;15.20;92.30;;;;;;5065742;28;20048;-66
2021/05/13 06:40:36;;;;;;;11.93;2.42;;;15.30;91.10;;;;;;5066666;28;20036;-66
2021/05/13 06:43:04;;;;;;;6.15;2.00;;;15.50;90.90;;;;;;5063523;28;20044;-66
2021/05/13 06:45:30;;;;;;;9.05;2.20;;;15.50;90.60;;;;;;5066088;28;20036;-66
2021/05/13 06:48:03;;;;;;;11.27;2.60;;;15.60;90.70;;;;;;5067318;28;20077;-66
2021/05/13 06:50:32;;;;;;;8.57;2.03;;;15.80;90.80;;;;;;5064050;28;20037;-66
2021/05/13 06:52:59;;;;;;;9.75;2.42;;;15.90;90.50;;;;;;5063868;28;20037;-66
2021/05/13 06:55:26;;;;;;;11.10;2.25;;;16.00;91.20;;;;;;5063376;28;20055;-66
2021/05/13 06:57:52;;;;;;;10.68;2.13;;;16.30;91.10;;;;;;5066135;28;20100;-66
2021/05/13 07:00:19;;;;;;;10.50;2.63;;;16.70;90.00;;;;;;5066812;28;20108;-66
2021/05/13 07:02:47;;;;;;;11.40;2.13;;;16.90;88.80;;;;;;5061215;28;20506;-66
2021/05/13 07:05:13;;;;;;;11.27;2.63;;;17.10;87.90;;;;;;5064426;28;20051;-66
2021/05/13 07:07:40;;;;;;;8.68;2.70;;;17.10;87.80;;;;;;5059474;28;20033;-66
2021/05/13 07:10:07;;;;;;;9.32;2.08;;;17.20;87.80;;;;;;5054919;28;20045;-66
2021/05/13 07:12:33;;;;;;;10.57;2.17;;;17.30;86.90;;;;;;5059063;28;20157;-66
2021/05/13 07:15:02;;;;;;;8.73;2.35;;;17.40;87.70;;;;;;5057270;28;20868;-66
2021/05/13 07:17:28;;;;;;;13.30;2.42;;;17.40;87.60;;;;;;5061728;28;20148;-66
2021/05/13 07:19:54;;;;;;;8.40;2.13;;;17.40;86.70;;;;;;5058168;28;20051;-66
2021/05/13 07:22:19;;;;;;;8.15;2.35;;;17.40;85.40;;;;;;5060068;28;20991;-66
2021/05/13 07:24:48;;;;;;;6.18;1.65;;;17.30;85.00;;;;;;5057972;28;20113;-66
2021/05/13 07:27:14;;;;;;;5.82;1.67;;;17.50;85.70;;;;;;5059425;28;20049;-66
2021/05/13 07:29:40;;;;;;;8.75;1.80;;;17.60;84.90;;;;;;5056312;28;20036;-66
2021/05/13 07:32:06;;;;;;;10.40;1.77;;;17.70;83.40;;;;;;5056928;28;20399;-66
2021/05/13 07:34:32;;;;;;;8.07;1.40;;;17.70;82.50;;;;;;5059243;28;20137;-66
2021/05/13 07:36:58;;;;;;;6.68;1.55;;;17.70;83.60;;;;;;5060652;28;20511;-66
2021/05/13 07:39:24;;;;;;;7.10;1.98;;;17.80;82.40;;;;;;5059058;28;20121;-66
2021/05/13 07:41:49;;;;;;;8.10;1.08;;;17.70;80.50;;;;;;5060303;28;20502;-66
2021/05/13 07:44:15;;;;;;;6.18;1.20;;;17.70;80.10;;;;;;5060334;28;20044;-66
2021/05/13 07:46:42;;;;;;;2.67;0.63;;;17.50;80.90;;;;;;5058573;28;20040;-65
2021/05/13 07:49:08;;;;;;;4.93;0.90;;;17.50;80.60;;;;;;5067343;28;20071;-66
2021/05/13 07:51:34;;;;;;;3.50;0.55;;;17.60;79.50;;;;;;5063211;28;20040;-66
2021/05/13 07:54:01;;;;;;;4.40;0.77;;;17.70;80.40;;;;;;5062301;28;20051;-66
2021/05/13 07:56:26;;;;;;;2.72;0.70;;;17.60;78.20;;;;;;5064892;28;20610;-66
2021/05/13 07:58:52;;;;;;;3.70;0.82;;;17.60;77.80;;;;;;5062944;28;20039;-66
2021/05/13 08:01:18;;;;;;;5.13;0.70;;;17.70;77.50;;;;;;5062801;28;20114;-66
2021/05/13 08:03:44;;;;;;;4.75;0.68;;;17.80;77.20;;;;;;5065250;28;20113;-66
2021/05/13 08:06:11;;;;;;;6.28;1.02;;;17.80;76.90;;;;;;5062451;28;20041;-66
2021/05/13 08:08:37;;;;;;;3.28;0.73;;;17.80;77.10;;;;;;5066811;28;20097;-66
2021/05/13 08:11:03;;;;;;;6.40;1.20;;;17.70;75.90;;;;;;5062248;28;20044;-66
2021/05/13 08:13:30;;;;;;;5.70;1.17;;;17.80;76.50;;;;;;5066491;28;20047;-66
2021/05/13 08:15:56;;;;;;;9.93;1.15;;;17.80;75.40;;;;;;5061178;28;20040;-66
2021/05/13 08:18:22;;;;;;;7.88;1.13;;;17.90;76.40;;;;;;5060519;28;20495;-66
2021/05/13 08:20:49;;;;;;;5.57;1.10;;;18.00;76.50;;;;;;5064797;28;20040;-66
2021/05/13 08:23:15;;;;;;;4.60;1.10;;;18.10;74.70;;;;;;5062417;28;20120;-66
2021/05/13 08:25:41;;;;;;;4.60;0.90;;;18.00;74.00;;;;;;5062647;28;20036;-66
2021/05/13 08:28:07;;;;;;;7.28;1.35;;;18.00;75.60;;;;;;5062877;28;20833;-66
2021/05/13 08:30:33;;;;;;;6.22;1.45;;;18.00;77.40;;;;;;5061624;28;20041;-66
2021/05/13 08:32:59;;;;;;;6.22;1.35;;;18.00;77.80;;;;;;5061453;28;20075;-66
2021/05/13 08:35:24;;;;;;;5.43;1.17;;;18.10;76.10;;;;;;5063061;28;20451;-66
2021/05/13 08:37:50;;;;;;;3.35;0.77;;;17.90;76.60;;;;;;5063805;28;20055;-66
2021/05/13 08:40:16;;;;;;;5.63;1.10;;;17.70;74.10;;;;;;5062836;28;20402;-66
2021/05/13 08:42:41;;;;;;;5.13;1.98;;;17.80;75.90;;;;;;5062838;28;20123;-66
2021/05/13 08:45:08;;;;;;;6.18;1.98;;;17.80;73.80;;;;;;5063705;28;20102;-66
2021/05/13 08:47:38;;;;;;;6.10;2.13;;;17.90;76.90;;;;;;5061644;28;20045;-66
2021/05/13 08:50:05;;;;;;;5.05;1.70;;;17.70;78.60;;;;;;5063163;28;20128;-66
2021/05/13 08:52:32;;;;;;;6.60;1.27;;;18.00;79.60;;;;;;5064833;28;20029;-66
2021/05/13 08:55:00;;;;;;;7.38;1.10;;;18.00;77.80;;;;;;5065351;28;20046;-67
2021/05/13 08:57:26;;;;;;;6.28;1.60;;;17.90;76.90;;;;;;5064279;28;20040;-66
2021/05/13 08:59:54;;;;;;;6.85;1.27;;;18.00;78.60;;;;;;5067345;28;20044;-66
2021/05/13 09:02:21;;;;;;;8.52;1.70;;;18.10;77.40;;;;;;5063262;28;20087;-66
2021/05/13 09:04:51;;;;;;;7.40;1.73;;;18.10;78.20;;;;;;5063534;28;20041;-66
2021/05/13 09:07:23;;;;;;;5.70;2.03;;;17.70;75.70;;;;;;5064583;28;20071;-66
2021/05/13 09:10:09;;;;;;;5.00;1.35;;;17.60;76.30;;;;;;5065693;28;20046;-66
2021/05/13 09:12:46;;;;;;;5.75;1.10;;;17.80;78.70;;;;;;5064005;28;20043;-66
2021/05/13 09:15:19;;;;;;;4.55;1.42;;;17.90;76.60;;;;;;5060653;28;20506;-66
2021/05/13 09:17:58;;;;;;;3.92;1.42;;;17.60;76.00;;;;;;5063017;28;20048;-66
2021/05/13 09:20:37;;;;;;;6.60;1.50;;;17.70;77.60;;;;;;5068733;28;20048;-66
2021/05/13 09:23:12;;;;;;;5.88;1.60;;;17.90;78.50;;;;;;5068536;28;20534;-66
2021/05/13 09:25:38;;;;;;;6.03;2.00;;;18.20;77.80;;;;;;5092784;28;20028;-66
2021/05/13 09:28:06;;;;;;;5.20;1.88;;;18.40;75.40;;;;;;5065935;28;20055;-66
2021/05/13 09:30:32;;;;;;;4.95;1.20;;;18.50;75.40;;;;;;5063015;28;20041;-66
2021/05/13 09:33:02;;;;;;;7.25;1.88;;;18.60;73.60;;;;;;5060687;28;20595;-67
2021/05/13 09:35:30;;;;;;;8.25;1.20;;;18.60;71.90;;;;;;5069865;28;20167;-66
2021/05/13 09:38:00;;;;;;;7.45;1.70;;;18.80;72.40;;;;;;5068610;28;20041;-66
2021/05/13 09:40:32;;;;;;;5.35;1.70;;;18.60;73.30;;;;;;5068808;28;20039;-66
2021/05/13 09:43:16;;;;;;;7.63;1.75;;;18.60;71.60;;;;;;5097043;28;20064;-66
2021/05/13 09:45:53;;;;;;;6.85;2.05;;;18.70;72.90;;;;;;5066983;28;20058;-66
2021/05/13 09:48:44;;;;;;;3.05;1.25;;;18.80;73.90;;;;;;5068293;28;20033;-66
2021/05/13 09:51:22;;;;;;;8.40;1.80;;;18.80;74.90;;;;;;5062313;28;20395;-66
2021/05/13 09:54:17;;;;;;;8.60;1.63;;;18.90;72.90;;;;;;5067303;28;20040;-66
2021/05/13 09:56:54;;;;;;;6.63;1.83;;;19.10;72.20;;;;;;5069767;28;20032;-67
2021/05/13 09:59:26;;;;;;;4.85;1.50;;;19.40;73.50;;;;;;5067710;28;20044;-66
2021/05/13 10:02:12;;;;;;;7.53;1.60;;;19.50;74.50;;;;;;5062046;28;20044;-66
2021/05/13 10:04:39;;;;;;;7.07;1.48;;;19.70;69.70;;;;;;5065174;28;20048;-66
2021/05/13 10:07:05;;;;;;;8.13;1.90;;;19.80;71.00;;;;;;5063137;28;20049;-66
2021/05/13 10:09:33;;;;;;;7.60;2.30;;;19.70;69.10;;;;;;5070167;28;20029;-66
2021/05/13 10:12:00;;;;;;;7.35;2.05;;;19.90;68.30;;;;;;5064628;28;20149;-66
2021/05/13 10:14:27;;;;;;;7.25;2.05;;;19.90;72.20;;;;;;5064254;28;20093;-66
2021/05/13 10:16:57;;;;;;;9.38;2.10;;;19.80;70.80;;;;;;5065803;28;20083;-66
2021/05/13 10:19:31;;;;;;;7.97;1.45;;;19.70;69.50;;;;;;5066388;28;20083;-66
2021/05/13 10:21:59;;;;;;;10.25;2.13;;;19.80;73.60;;;;;;5064268;28;20540;-66
2021/05/13 10:24:25;;;;;;;7.07;1.65;;;19.90;72.30;;;;;;5063186;28;20090;-66
2021/05/13 10:26:52;;;;;;;7.32;2.38;;;19.90;75.00;;;;;;5063114;28;20045;-66
2021/05/13 10:29:23;;;;;;;7.47;1.92;;;19.70;69.00;;;;;;5064092;28;20048;-66
2021/05/13 10:32:00;;;;;;;7.28;2.05;;;19.80;67.60;;;;;;5064898;28;20044;-66
2021/05/13 10:34:42;;;;;;;11.75;2.30;;;19.80;69.00;;;;;;5066739;28;20397;-66
2021/05/13 10:37:32;;;;;;;6.93;1.77;;;19.70;70.50;;;;;;5058820;28;20495;-66
2021/05/13 10:42:40;;;;;;;5.78;1.40;;;19.50;68.00;;;;;;5066463;28;20486;-67
2021/05/13 10:45:24;;;;;;;9.55;2.42;;;19.70;68.50;;;;;;5063725;28;20059;-67
2021/05/13 10:48:17;;;;;;;6.65;1.73;;;19.70;72.20;;;;;;5065959;28;20749;-68
2021/05/13 10:51:01;;;;;;;5.38;1.08;;;19.80;70.90;;;;;;5069190;28;20455;-68
2021/05/13 10:56:34;;;;;;;5.82;1.15;;;20.10;70.10;;;;;;5061742;28;20045;-68
2021/05/13 10:59:09;;;;;;;11.65;4.25;;;20.10;66.60;;;;;;5063333;28;20099;-68
2021/05/13 11:01:44;;;;;;;12.90;3.28;;;19.90;68.30;;;;;;5062185;28;20036;-68
2021/05/13 11:04:22;;;;;;;9.60;3.53;;;20.00;70.60;;;;;;5064807;28;20045;-68
2021/05/13 11:06:54;;;;;;;5.78;1.30;;;20.00;67.80;;;;;;5065647;28;20303;-68
2021/05/13 11:09:42;;;;;;;6.07;1.25;;;20.00;68.70;;;;;;5068639;28;20075;-68
2021/05/13 11:12:15;;;;;;;17.13;3.70;;;20.10;64.90;;;;;;5063053;28;20071;-68
2021/05/13 11:20:24;;;;;;;5.28;1.40;;;20.00;65.20;;;;;;5066328;28;20082;-68
2021/05/13 11:23:14;;;;;;;7.25;1.67;;;20.00;64.10;;;;;;5070143;28;20036;-67
2021/05/13 11:25:55;;;;;;;4.95;1.20;;;20.10;63.70;;;;;;5060796;28;20067;-68
2021/05/13 11:28:32;;;;;;;4.88;1.48;;;20.40;68.90;;;;;;5068342;28;20037;-68
2021/05/13 11:31:12;;;;;;;6.32;1.48;;;20.60;65.90;;;;;;5068805;28;20036;-67
2021/05/13 11:33:52;;;;;;;5.15;1.33;;;20.40;63.50;;;;;;5067524;28;20162;-67
2021/05/13 11:36:23;;;;;;;7.03;1.23;;;20.30;64.10;;;;;;5066604;28;20127;-67
2021/05/13 11:38:56;;;;;;;7.35;1.45;;;20.30;62.90;;;;;;5059221;28;20089;-67
2021/05/13 11:41:23;;;;;;;5.60;0.90;;;20.40;63.30;;;;;;5054002;28;20028;-67
2021/05/13 11:43:49;;;;;;;6.65;1.30;;;20.60;64.10;;;;;;5060362;28;20195;-67
2021/05/13 11:46:20;;;;;;;7.93;1.65;;;20.70;64.20;;;;;;5059238;28;20151;-67
2021/05/13 11:48:48;;;;;;;5.13;1.00;;;20.40;64.60;;;;;;5062104;28;20391;-67
2021/05/13 11:51:24;;;;;;;5.88;1.55;;;20.20;63.90;;;;;;5067377;28;20127;-67
2021/05/13 11:53:53;;;;;;;4.90;0.77;;;20.10;60.80;;;;;;5062367;28;20032;-68
2021/05/13 11:56:19;;;;;;;4.00;0.90;;;20.10;64.60;;;;;;5062405;28;20037;-68
2021/05/13 11:58:49;;;;;;;10.85;3.88;;;20.30;66.00;;;;;;5091587;27;20222;-68
2021/05/13 12:01:57;;;;;;;8.75;1.23;;;20.20;62.90;;;;;;5061693;28;20071;-68
2021/05/13 12:04:24;;;;;;;6.40;1.40;;;20.20;60.70;;;;;;5066944;28;20045;-68
2021/05/13 12:07:01;;;;;;;5.93;1.25;;;20.20;63.10;;;;;;5065096;28;20502;-68
2021/05/13 12:09:28;;;;;;;5.32;1.05;;;20.00;62.30;;;;;;5067357;28;20068;-67
2021/05/13 12:11:55;;;;;;;6.78;1.20;;;19.70;63.10;;;;;;5061439;28;20041;-67
2021/05/13 12:14:24;;;;;;;6.65;1.13;;;19.60;64.10;;;;;;5063367;28;20104;-67
2021/05/13 12:16:57;;;;;;;2.83;0.70;;;19.60;65.30;;;;;;5066613;28;20048;-67
2021/05/13 12:19:23;;;;;;;2.67;1.20;;;19.70;63.20;;;;;;5066239;28;20427;-67
2021/05/13 12:21:57;;;;;;;3.72;0.80;;;20.00;68.40;;;;;;5070411;28;20071;-67
2021/05/13 12:24:43;;;;;;;3.97;1.60;;;20.10;65.30;;;;;;5062437;28;20526;-67
2021/05/13 12:27:10;;;;;;;4.25;1.10;;;19.80;64.50;;;;;;5089245;28;20431;-68
2021/05/13 12:29:40;;;;;;;5.25;1.00;;;19.50;64.80;;;;;;5063161;28;20049;-68
2021/05/13 12:32:06;;;;;;;7.43;1.98;;;19.20;65.30;;;;;;5062046;28;20040;-67
2021/05/13 12:34:39;;;;;;;4.15;1.80;;;19.20;65.20;;;;;;5065644;28;20044;-67
2021/05/13 12:37:06;;;;;;;4.03;1.15;;;19.30;68.00;;;;;;5059984;28;20052;-67
2021/05/13 12:39:35;;;;;;;5.47;1.30;;;19.30;66.10;;;;;;5066175;28;20057;-67
2021/05/13 12:42:00;;;;;;;3.63;1.38;;;19.20;64.20;;;;;;5066340;28;20127;-67
2021/05/13 12:44:32;;;;;;;5.82;0.98;;;19.20;68.60;;;;;;5060853;28;20115;-67
2021/05/13 12:47:03;;;;;;;3.05;0.73;;;19.50;70.00;;;;;;5056786;28;20122;-70
2021/05/13 12:49:31;;;;;;;3.63;0.80;;;19.80;67.50;;;;;;5062655;28;20090;-67
2021/05/13 12:52:04;;;;;;;6.22;0.98;;;19.70;66.10;;;;;;5059343;28;20041;-67
2021/05/13 12:54:31;;;;;;;4.30;1.15;;;19.70;66.20;;;;;;5056564;28;20041;-67
2021/05/13 12:57:26;;;;;;;6.40;1.02;;;19.70;63.70;;;;;;5063803;28;20067;-67
2021/05/13 12:59:51;;;;;;;4.53;0.60;;;19.40;67.50;;;;;;5047786;28;21155;-67
2021/05/13 13:02:30;;;;;;;6.80;1.40;;;19.40;65.70;;;;;;5057641;28;20047;-67
2021/05/13 13:04:58;;;;;;;3.90;1.33;;;19.40;66.90;;;;;;5056069;28;20127;-71
2021/05/13 13:07:47;;;;;;;7.07;2.15;;;19.50;68.10;;;;;;5064883;28;20724;-68
2021/05/13 13:10:39;;;;;;;5.72;4.22;;;19.40;64.90;;;;;;5060659;28;20074;-68